Create Custom Reports and Graphics: Custom Report

Latest Observations

Map

15 Minute Data

Southern Napa County

Map

15 Minute Data

Northeast Napa County

10 Stations

15 Minute Data | America/Los_Angeles
as of 10/6/22 5:54 AM PDT
Station Date Time Temp (°F) RH (%) Dew Pt (°F) Wind Spd (mph) Wind Dir (°) Wind Gust (mph) Latest Rain (In) Daily Rain (In) Daily Min Temp (°F) Yest MaxT (°F)
Montesol 10/6/22 0545 54.4   0.4 - - - - - - - 53.9   2.0 86.4   3.7
Pope Valley (Weeks Lake) 10/6/22 0545 46.6   1.0 97   3 45.9   0.3 0.0   0.2 N | 0 0.0   1.3 0.00 0.00 46.4   1.0 94.0   3.2
Whiskey River Winery 10/6/22 0545 47.7   1.0 93   3 45.7   0.2 0.4   0.4 NW | 312 1.0   0.4 0.00 0.00 47.7   1.1 92.5   4.0
Dollarhide Base 10/6/22 0545 54.9   1.6 94   4 53.1   0.5 0.0   0.6 N | 0 0.0   1.4 0.00 0.00 54.3   1.2 94.1   2.8
Dollarhide 1AS Remote 10/6/22 0545 46.5   0.2 92   1 44.3   0.0 0.0   0.0 N | 0 0.0   0.0 - - 46.2   0.3 -
Dollarhide 17B Remote 10/6/22 0100 57.9   2.1 79   9 51.5   0.8 - - - - - 48.3   1.3 -
Dollarhide 18A Remote 10/6/22 0545 45.4   0.8 93   0 43.6   0.7 - - - - - 45.2   0.8 -
Angwin 10/6/22 0545 66.5   0.9 55   12 49.6   5.6 3.2   2.2 NNW | 347 4.6   3.2 0.00 0.00 66.2   0.2 84.9   3.6
Lower Chiles Valley (Brown) 10/6/22 0545 46.4   0.6 98   1 46.0   0.4 0.0   0.1 N | 0 0.0   1.3 0.00 0.00 46.1   0.8 90.1   5.4
Moss Creek Vineyard/Reservior 10/6/22 0545 53.0   1.4 90   2 50.2   0.6 - - - 0.00 0.00 52.8   1.7 93.1   1.8
Max     66.5 98 53.1 3.2 - 4.6 0.00 0.00 66.2 94.1
Avg     51.3 89 47.3 0.6 - 0.9 0.00 - - -
Min     45.4 55 43.6 0.0 - 0.0 0.00 0.00 45.2 84.9

Northern & Central Napa County

17 Stations

15 Minute Data | America/Los_Angeles
as of 10/6/22 5:54 AM PDT
Station Date Time Temp (°F) RH (%) Dew Pt (°F) Wind Spd (mph) Wind Dir (°) Wind Gust (mph) Latest Rain (In) Daily Rain (In) Daily Min Temp (°F) Daily Max Temp (°F)
Calistoga-North 10/6/22 0545 50.2   2.0 97   1 49.3   1.7 - - - 0.00 0.00 49.7   1.8 56.1   2.6
St. Helena-North 10/6/22 0545 51.6   1.0 90   3 48.8   0.2 0.0   1.4 N | 0 0.0   2.2 0.00 0.00 51.5   1.0 57.5   2.4
Rutherford Hill Estate 10/6/22 0545 55.3   1.1 95   5 54.0   0.3 0.8   0.3 ENE | 73 1.3   0.2 0.00 0.00 55.2   1.1 60.9   3.6
Rutherford-North (Mee Ln) 10/6/22 0545 47.3   0.8 92   1 45.2   0.6 0.0   0.0 N | 0 0.0   0.0 0.00 0.00 47.1   0.7 53.3   1.9
Rutherford (STS) 10/6/22 0545 49.5   1.9 98   0 49.0   1.8 0.1   0.1 W | 264 0.6   0.6 0.00 0.00 48.7   1.6 54.7   1.9
Oakville-NE (Ranch 88) 10/6/22 0545 46.3   0.3 92   1 44.0   0.1 0.0   0.0 N | 0 0.0   0.0 0.00 0.00 45.4   0.3 51.1   1.9
To Kalon 10/6/22 0530 49.9   1.3 95   0 48.6   1.2 0.1   0.2 NNW | 331 0.9   0.3 0.00 0.00 49.6   1.1 55.9   2.7
Yountville (Ranch 67) 10/6/22 0545 46.6   0.8 95   1 45.4   1.1 1.4   1.4 NNW | 332 2.1   2.1 0.00 0.00 45.7   1.2 51.5   1.0
Stags Leap Dist (Silverado Vineyards) 10/6/22 0545 48.7   1.4 95   1 47.2   1.1 0.0   0.0 N | 0 0.0   0.0 0.00 0.00 48.0   1.0 54.4   2.8
Borreo (Soda Canyon) 10/6/22 0545 49.4   0.2 97   0 48.6   0.0 1.4   0.5 NNW | 338 2.6   0.4 0.00 0.00 49.1   0.0 53.0   1.0
Wappo Hill 10/6/22 0530 46.3   1.3 92   2 44.2   1.9 0.8   0.8 W | 281 1.9   0.9 0.00 0.00 45.8   0.6 50.8   1.1
Stags Leap Dist (Chimney Rock) 10/6/22 0545 47.2   0.8 94   2 45.7   0.4 1.1   1.1 NW | 322 2.6   2.6 0.00 0.00 46.0   0.2 52.0   1.3
Yountville-South (Ranch 87) 10/6/22 0545 46.3   2.0 96   3 45.2   2.8 0.4   0.3 NNW | 337 1.5   0.4 0.00 0.00 45.9   0.7 51.9   1.5
Yountville-SE (Ranch 85) 10/6/22 0545 47.2   0.8 96   2 46.2   1.1 1.3   1.2 NW | 323 1.9   1.1 0.00 0.00 46.6   0.4 52.6   1.1
Oak Knoll-East (Ranch 53) 10/6/22 0545 47.1   0.6 91   1 44.7   0.9 0.1   0.1 NNW | 348 0.8   0.8 0.00 0.00 46.6   0.4 51.6   0.3
Napa-NW (Ranch 54) 10/6/22 0545 47.8   0.1 91   0 45.2   0.0 0.0   0.0 W | 260 0.5   0.5 0.00 0.00 47.4   0.3 52.6   0.4
Napa-North (Ranch 29) 10/6/22 0545 48.1   1.4 98   1 47.5   1.0 0.1   0.1 ENE | 59 0.8   0.8 0.00 0.00 47.0   0.4 53.1   0.9
Max     55.3 98 54.0 1.4 - 2.6 0.00 0.00 55.2 60.9
Avg     48.5 94 47.0 0.5 - 1.1 0.00 - - -
Min     46.3 90 44.0 0.0 - 0.0 0.00 0.00 45.4 50.8

Southern Napa County

19 Stations

15 Minute Data | America/Los_Angeles
as of 10/6/22 5:54 AM PDT
Station Date Time Temp (°F) RH (%) Dew Pt (°F) Wind Spd (mph) Wind Dir (°) Wind Gust (mph) Latest Rain (In) Daily Rain (In) Daily Min Temp (°F) Daily Max Temp (°F)
Mt. Veeder 10/6/22 0545 71.2   2.9 50   8 51.4   7.4 0.6   0.9 W | 277 1.3   1.2 0.00 0.00 70.3   6.3 74.4   2.9
Mount George (Napa East) 10/6/22 0545 48.2   1.0 96   1 47.3   1.1 0.3   0.3 ENE | 70 1.1   0.2 0.00 0.00 47.9   0.8 52.8   0.4
Napa-East (Palmaz 300') 10/6/22 0530 51.2   0.9 97   0 50.4   0.9 0.3   0.0 ESE | 108 1.1   0.1 0.00 0.00 50.8   1.2 54.2   0.8
Napa-East (Palmaz 1200') 10/6/22 0545 52.3   1.3 92   8 50.2   0.8 2.2   1.6 E | 92 2.9   0.1 - - 51.9   1.2 57.0   3.8
Napa-East (Palmaz 1400') 10/6/22 0545 52.7   0.0 94   1 50.9   0.3 0.3   2.3 SSE | 164 2.0   1.9 0.00 0.00 52.4   1.2 57.1   0.4
Wooden Valley 10/6/22 0545 47.3   2.5 91   2 44.9   3.0 0.2   0.2 WSW | 237 1.3   1.3 0.00 0.00 46.9   2.9 52.1   5.2
Napa-West Upper (Truchard) 10/6/22 0545 54.7   1.3 100   0 54.7   1.3 0.5   0.4 NE | 41 1.4   0.6 0.00 0.00 54.2   0.9 57.4   1.3
Napa-West Lower (Truchard) 10/6/22 0545 46.2   0.4 96   0 45.1   0.4 - - - - - 45.7   0.0 49.6   0.5
Napa-South (Toyon Farms) 10/6/22 0545 51.7   0.5 97   0 50.9   0.4 0.0   0.0 N | 0 0.0   0.0 0.00 0.00 51.5   1.2 55.3   0.8
Toyon Remote 1 10/6/22 0545 49.5   1.9 - - - - - - - 47.8   0.5 51.6   0.3
Toyon Remote 2 10/6/22 0545 46.5   0.3 - - - - - - - 45.9   0.4 54.4   4.7
Toyon Remote 3 10/6/22 0545 47.3   0.8 - - - - - - - 47.0   0.6 50.2   0.0
Carneros (Saintsbury) 10/6/22 0545 52.0   1.5 100   0 52.0   1.5 1.8   0.6 NNW | 342 2.7   0.8 0.00 0.00 50.4   0.1 54.0   0.8
Suscol Lower (Ranch 35) 10/6/22 0545 51.7   0.8 100   0 51.7   0.8 2.0   0.2 NE | 56 3.5   0.4 0.00 0.00 51.0   0.8 58.5   4.0
Suscol Mtn (Ranch 93) 10/6/22 0545 59.2   4.8 75   23 51.1   2.6 3.5   3.3 NW | 325 4.7   3.2 0.00 0.00 55.5   1.4 59.4   3.4
Suscol Upper (Ranch 92) 10/6/22 0545 56.3   2.5 85   15 52.0   1.8 2.6   0.3 NE | 47 3.6   0.7 0.00 0.00 55.1   1.9 57.3   1.5
Stanly (Ranch 45) 10/6/22 0545 51.3   1.8 96   0 50.1   1.9 1.7   0.2 NNW | 345 2.4   0.0 0.00 0.00 50.2   0.9 56.9   3.9
Carneros Upper (Ranch 81) 10/6/22 0545 55.3   0.2 100   3 55.3   1.1 4.5   4.1 NNE | 33 5.6   4.6 0.00 0.00 54.5   0.4 57.5   0.3
Carneros Lower (Ranch 81) 10/6/22 0545 52.4   5.5 100   4 52.5   6.6 1.3   1.0 NNE | 15 2.8   1.7 0.00 0.00 47.3   0.7 52.5   3.3
Max     71.2 100 55.3 4.5 - 5.6 0.00 0.00 70.3 74.4
Avg     52.5 92 50.7 1.5 - 2.4 0.00 - - -
Min     46.2 50 44.9 0.0 - 0.0 0.00 0.00 45.7 49.6

Latest Observations

Map

Hourly Data